This is the latest recevied weather packets stored in our database for station/object LROD. If no packets are shown the sender has not sent any weather packets the latest 10 day(s).
| Time | Temp. | Humidity | Pressure | Rain* | Wind** | Luminosity | Snow |
|---|---|---|---|---|---|---|---|
| 1777600110 | 2.78° C | 52% | 1025 hPa | - | - | - | - |
| 1777599209 | 2.78° C | 52% | 1025 hPa | - | - | - | - |
| 1777598310 | 2.78° C | 52% | 1025 hPa | - | - | - | - |
| 1777597410 | 2.78° C | 52% | 1025 hPa | - | - | - | - |
| 1777596510 | 3.89° C | 48% | 1025 hPa | - | - | - | - |
| 1777595609 | 3.89° C | 48% | 1025 hPa | - | - | - | - |
| 1777594709 | 3.89° C | 48% | 1025 hPa | - | - | - | - |
| 1777593809 | 3.89° C | 48% | 1025 hPa | - | - | - | - |
| 1777592910 | 6.11° C | 42% | 1025 hPa | - | - | - | - |
| 1777592009 | 6.11° C | 42% | 1025 hPa | - | - | - | - |
| 1777591110 | 6.11° C | 39% | 1026 hPa | - | - | - | - |
| 1777590209 | 6.11° C | 39% | 1026 hPa | - | - | - | - |
| 1777589309 | 7.22° C | 37% | 1026 hPa | - | - | - | - |
| 1777588409 | 7.22° C | 37% | 1026 hPa | - | - | - | - |
| 1777587509 | 6.11° C | 42% | 1026 hPa | - | - | - | - |
| 1777586609 | 6.11° C | 42% | 1026 hPa | - | - | - | - |
| 1777585710 | 7.78° C | 34% | 1026 hPa | - | - | - | - |
| 1777584810 | 7.78° C | 34% | 1026 hPa | - | - | - | - |
| 1777583910 | 7.78° C | 34% | 1026 hPa | - | - | - | - |
| 1777583012 | 7.78° C | 34% | 1026 hPa | - | - | - | - |
| 1777582109 | 7.78° C | 34% | 1026 hPa | - | - | - | - |
| 1777581209 | 7.78° C | 34% | 1026 hPa | - | - | - | - |
| 1777580309 | 8.89° C | 32% | 1025 hPa | - | - | - | - |
| 1777579410 | 8.89° C | 32% | 1025 hPa | - | - | - | - |
| 1777578509 | 8.89° C | 32% | 1025 hPa | - | - | - | - |
* Rain since midnight (hover to see other rain measurements)
** Current wind speed in m/s (hover to see current wind gust speed)